createdAt,value
2018-03-21T00:01:15.422Z,-2.80
2018-03-21T00:03:42.859Z,-2.80
2018-03-21T00:06:10.408Z,-2.90
2018-03-21T00:08:37.881Z,-2.80
2018-03-21T00:11:05.349Z,-2.90
2018-03-21T00:13:32.836Z,-2.90
2018-03-21T00:16:00.281Z,-3.00
2018-03-21T00:18:27.748Z,-3.00
2018-03-21T00:20:55.197Z,-3.10
2018-03-21T00:23:22.664Z,-3.10
2018-03-21T00:25:50.110Z,-3.20
2018-03-21T00:28:17.576Z,-3.20
2018-03-21T00:30:45.031Z,-3.20
2018-03-21T00:33:12.490Z,-3.10
2018-03-21T00:35:39.953Z,-3.00
2018-03-21T00:38:07.432Z,-3.20
2018-03-21T00:40:35.679Z,-2.90
2018-03-21T00:43:03.115Z,-2.90
2018-03-21T00:45:30.572Z,-2.80
2018-03-21T00:47:58.024Z,-2.80
2018-03-21T00:50:25.484Z,-2.70
2018-03-21T00:52:52.929Z,-2.70
2018-03-21T00:55:20.388Z,-2.80
2018-03-21T00:57:47.833Z,-2.80
2018-03-21T01:00:15.300Z,-3.10
2018-03-21T01:02:42.736Z,-3.10
2018-03-21T01:05:10.229Z,-3.00
2018-03-21T01:07:38.397Z,-2.90
2018-03-21T01:10:05.846Z,-2.90
2018-03-21T01:12:33.291Z,-3.20
2018-03-21T01:15:00.739Z,-3.20
2018-03-21T01:17:28.196Z,-3.20
2018-03-21T01:19:55.640Z,-3.20
2018-03-21T01:22:23.861Z,-3.20
2018-03-21T01:24:51.308Z,-3.20
2018-03-21T01:27:18.770Z,-3.10
2018-03-21T01:29:46.209Z,-3.00
2018-03-21T01:32:13.671Z,-3.00
2018-03-21T01:34:41.134Z,-3.00
2018-03-21T01:37:08.608Z,-3.10
2018-03-21T01:39:36.086Z,-3.10
2018-03-21T01:42:03.551Z,-3.00
2018-03-21T01:44:31.036Z,-3.00
2018-03-21T01:46:59.283Z,-3.30
2018-03-21T01:49:26.752Z,-3.30
2018-03-21T01:51:54.999Z,-3.30
2018-03-21T01:54:22.471Z,-3.30
2018-03-21T01:56:49.936Z,-3.20
2018-03-21T01:59:17.404Z,-3.10
2018-03-21T02:01:45.647Z,-3.20
2018-03-21T02:04:13.097Z,-3.20
2018-03-21T02:06:40.579Z,-3.20
2018-03-21T02:09:08.041Z,-3.20
2018-03-21T02:11:35.500Z,-3.20
2018-03-21T02:14:02.968Z,-3.30
2018-03-21T02:16:31.242Z,-3.30
2018-03-21T02:18:58.668Z,-3.40
2018-03-21T02:21:26.136Z,-3.40
2018-03-21T02:23:53.598Z,-3.60
2018-03-21T02:26:21.061Z,-3.60
2018-03-21T02:28:48.529Z,-3.60
2018-03-21T02:31:16.758Z,-3.50
2018-03-21T02:33:44.212Z,-3.60
2018-03-21T02:36:11.680Z,-3.50
2018-03-21T02:38:39.152Z,-3.50
2018-03-21T02:41:06.616Z,-3.60
2018-03-21T02:43:34.096Z,-3.60
2018-03-21T02:46:02.359Z,-3.60
2018-03-21T02:48:29.824Z,-3.70
2018-03-21T02:50:58.064Z,-3.70
2018-03-21T02:53:25.540Z,-3.70
2018-03-21T02:55:53.021Z,-3.60
2018-03-21T02:58:21.272Z,-3.70
2018-03-21T03:00:48.760Z,-3.70
2018-03-21T03:03:16.988Z,-3.80
2018-03-21T03:05:44.460Z,-3.90
2018-03-21T03:08:11.920Z,-3.90
2018-03-21T03:10:39.388Z,-4.10
2018-03-21T03:13:06.840Z,-4.00
2018-03-21T03:15:34.306Z,-4.00
2018-03-21T03:18:01.748Z,-3.90
2018-03-21T03:20:29.215Z,-4.00
2018-03-21T03:22:56.663Z,-3.90
2018-03-21T03:25:24.123Z,-4.00
2018-03-21T03:27:51.572Z,-4.20
2018-03-21T03:30:19.021Z,-4.20
2018-03-21T03:32:46.464Z,-4.30
2018-03-21T03:35:13.906Z,-4.30
2018-03-21T03:37:41.372Z,-4.30
2018-03-21T03:40:08.820Z,-4.30
2018-03-21T03:42:37.048Z,-4.80
2018-03-21T03:45:04.486Z,-4.90
2018-03-21T03:47:31.974Z,-4.70
2018-03-21T03:49:59.420Z,-4.60
2018-03-21T03:52:26.879Z,-4.40
2018-03-21T03:54:54.335Z,-4.50
2018-03-21T03:57:21.795Z,-4.60
2018-03-21T03:59:49.244Z,-4.70
2018-03-21T04:02:16.708Z,-4.90
2018-03-21T04:04:44.147Z,-5.00
2018-03-21T04:07:11.611Z,-4.90
2018-03-21T04:09:39.058Z,-4.70
2018-03-21T04:12:06.764Z,-4.70
2018-03-21T04:14:34.972Z,-4.80
2018-03-21T04:17:02.439Z,-4.80
2018-03-21T04:19:29.894Z,-4.90
2018-03-21T04:21:57.341Z,-5.00
2018-03-21T04:24:24.799Z,-4.80
2018-03-21T04:26:52.235Z,-4.80
2018-03-21T04:29:19.702Z,-4.70
2018-03-21T04:31:47.143Z,-4.90
2018-03-21T04:34:14.591Z,-5.10
2018-03-21T04:36:42.807Z,-4.90
2018-03-21T04:39:10.267Z,-5.00
2018-03-21T04:41:37.699Z,-4.80
2018-03-21T04:44:05.152Z,-4.70
2018-03-21T04:46:32.604Z,-4.70
2018-03-21T04:49:00.056Z,-4.80
2018-03-21T04:51:27.496Z,-4.80
2018-03-21T04:53:54.948Z,-4.80
2018-03-21T04:56:22.393Z,-4.80
2018-03-21T04:58:49.859Z,-4.80
2018-03-21T05:01:17.303Z,-4.70
2018-03-21T05:03:44.751Z,-4.70
2018-03-21T05:06:12.208Z,-4.80
2018-03-21T05:08:39.660Z,-4.90
2018-03-21T05:11:07.117Z,-4.90
2018-03-21T05:13:34.555Z,-4.90
2018-03-21T05:16:02.013Z,-5.00
2018-03-21T05:18:29.446Z,-4.90
2018-03-21T05:20:56.902Z,-5.10
2018-03-21T05:23:24.351Z,-5.10
2018-03-21T05:25:52.572Z,-5.10
2018-03-21T05:28:20.013Z,-5.10
2018-03-21T05:30:47.469Z,-5.20
2018-03-21T05:33:14.932Z,-5.20
2018-03-21T05:35:42.380Z,-5.20
2018-03-21T05:38:09.815Z,-5.40
2018-03-21T05:40:37.270Z,-5.20
2018-03-21T05:43:05.478Z,-5.00
2018-03-21T05:45:32.934Z,-5.10
2018-03-21T05:48:00.428Z,-5.30
2018-03-21T05:50:27.844Z,-5.40
2018-03-21T05:52:55.295Z,-5.30
2018-03-21T05:55:23.555Z,-5.10
2018-03-21T05:57:51.775Z,-4.60
2018-03-21T06:00:19.226Z,-4.60
2018-03-21T06:02:46.691Z,-4.80
2018-03-21T06:05:14.143Z,-4.70
2018-03-21T06:07:41.599Z,-4.00
2018-03-21T06:10:09.065Z,-4.10
2018-03-21T06:12:36.514Z,-4.20
2018-03-21T06:15:03.972Z,-4.20
2018-03-21T06:17:31.451Z,-3.90
2018-03-21T06:19:58.907Z,-3.80
2018-03-21T06:22:26.351Z,-3.10
2018-03-21T06:24:53.795Z,-2.80
2018-03-21T06:27:21.257Z,-1.40
2018-03-21T06:29:48.746Z,-0.10
2018-03-21T06:32:16.191Z,0.50
2018-03-21T06:34:43.657Z,-0.30
2018-03-21T06:37:11.131Z,-0.40
2018-03-21T06:39:39.360Z,-1.10
2018-03-21T06:42:06.804Z,-1.10
2018-03-21T06:44:34.267Z,0.70
2018-03-21T06:47:01.715Z,1.60
2018-03-21T06:49:29.173Z,2.20
2018-03-21T06:51:56.642Z,2.80
2018-03-21T06:54:24.119Z,2.90
2018-03-21T06:56:51.563Z,3.20
2018-03-21T06:59:19.028Z,3.40
2018-03-21T07:01:46.475Z,3.00
2018-03-21T07:04:13.939Z,3.00
2018-03-21T07:06:41.396Z,3.40
2018-03-21T07:09:08.869Z,3.70
2018-03-21T07:11:36.324Z,3.80
2018-03-21T07:14:15.539Z,3.90
2018-03-21T07:16:43.000Z,3.50
2018-03-21T07:19:10.447Z,3.40
2018-03-21T07:21:37.901Z,3.30
2018-03-21T07:24:05.357Z,2.70
2018-03-21T07:26:32.824Z,2.90
2018-03-21T07:29:00.269Z,2.90
2018-03-21T07:31:27.725Z,1.50
2018-03-21T07:33:55.183Z,2.50
2018-03-21T07:36:22.649Z,1.50
2018-03-21T07:38:50.102Z,2.70
2018-03-21T07:41:17.569Z,4.00
2018-03-21T07:43:45.016Z,3.50
2018-03-21T07:46:12.476Z,2.60
2018-03-21T07:48:39.930Z,2.50
2018-03-21T07:51:07.384Z,2.80
2018-03-21T07:53:34.841Z,3.80
2018-03-21T07:56:02.297Z,3.70
2018-03-21T07:58:29.741Z,5.10
2018-03-21T08:00:57.203Z,4.50
2018-03-21T08:03:24.648Z,5.40
2018-03-21T08:05:52.125Z,5.30
2018-03-21T08:08:19.579Z,6.20
2018-03-21T08:10:47.003Z,6.70
2018-03-21T08:13:15.224Z,6.50
2018-03-21T08:15:42.661Z,6.50
2018-03-21T08:18:10.116Z,7.20
2018-03-21T08:20:37.563Z,5.80
2018-03-21T08:23:05.026Z,7.10
2018-03-21T08:25:32.476Z,5.80
2018-03-21T08:27:59.953Z,6.80
2018-03-21T08:30:28.132Z,6.10
2018-03-21T08:32:55.595Z,6.10
2018-03-21T08:35:23.040Z,4.70
2018-03-21T08:37:50.489Z,3.90
2018-03-21T08:40:17.933Z,4.60
2018-03-21T08:42:45.376Z,4.70
2018-03-21T08:45:12.808Z,5.50
2018-03-21T08:47:40.268Z,5.00
2018-03-21T08:50:07.707Z,4.70
2018-03-21T08:52:35.159Z,5.70
2018-03-21T08:55:02.599Z,5.60
2018-03-21T08:57:30.050Z,4.80
2018-03-21T08:59:57.513Z,5.00
2018-03-21T09:02:24.959Z,5.20
2018-03-21T09:04:52.404Z,5.30
2018-03-21T09:07:19.846Z,5.00
2018-03-21T09:09:47.299Z,4.90
2018-03-21T09:12:15.501Z,5.00
2018-03-21T09:14:42.952Z,5.00
2018-03-21T09:17:10.387Z,5.00
2018-03-21T09:19:37.830Z,4.90
2018-03-21T09:22:06.042Z,4.80
2018-03-21T09:24:33.491Z,4.80
2018-03-21T09:27:00.931Z,4.90
2018-03-21T09:29:29.137Z,6.10
2018-03-21T09:31:56.602Z,6.10
2018-03-21T09:34:24.052Z,5.40
2018-03-21T09:36:51.484Z,5.40
2018-03-21T09:39:19.700Z,4.70
2018-03-21T09:41:47.139Z,4.70
2018-03-21T09:44:14.598Z,5.40
2018-03-21T09:46:42.024Z,5.90
2018-03-21T09:49:10.235Z,5.20
2018-03-21T09:51:37.688Z,5.20
2018-03-21T09:54:05.107Z,5.20
2018-03-21T09:56:33.323Z,5.40
2018-03-21T09:59:00.773Z,5.40
2018-03-21T10:01:28.220Z,6.00
2018-03-21T10:03:55.655Z,6.10
2018-03-21T10:06:23.874Z,5.50
2018-03-21T10:08:51.313Z,5.50
2018-03-21T10:11:18.770Z,6.30
2018-03-21T10:13:46.203Z,5.80
2018-03-21T10:16:14.423Z,6.80
2018-03-21T10:18:41.863Z,6.80
2018-03-21T10:21:09.344Z,6.90
2018-03-21T10:23:36.776Z,6.70
2018-03-21T10:26:04.232Z,6.30
2018-03-21T10:28:31.667Z,6.10
2018-03-21T10:30:59.106Z,6.10
2018-03-21T10:33:26.556Z,6.70
2018-03-21T10:35:53.992Z,6.70
2018-03-21T10:38:21.439Z,6.20
2018-03-21T10:40:48.896Z,6.30
2018-03-21T10:43:16.352Z,6.00
2018-03-21T10:45:43.808Z,6.40
2018-03-21T10:48:11.255Z,6.50
2018-03-21T10:50:38.697Z,6.10
2018-03-21T10:53:06.159Z,8.10
2018-03-21T10:55:33.588Z,7.60
2018-03-21T10:58:01.031Z,6.70
2018-03-21T11:00:28.475Z,7.50
2018-03-21T11:03:01.873Z,7.10
2018-03-21T11:05:29.324Z,7.50
2018-03-21T11:07:56.777Z,8.90
2018-03-21T11:10:24.217Z,8.30
2018-03-21T11:12:51.699Z,8.80
2018-03-21T11:15:19.135Z,10.50
2018-03-21T11:17:46.580Z,8.60
2018-03-21T11:20:14.023Z,8.10
2018-03-21T11:22:41.471Z,8.00
2018-03-21T11:25:08.934Z,8.10
2018-03-21T11:27:36.367Z,7.60
2018-03-21T11:30:04.584Z,11.20
2018-03-21T11:32:32.794Z,10.60
2018-03-21T11:35:00.249Z,10.50
2018-03-21T11:37:27.684Z,9.70
2018-03-21T11:39:55.129Z,8.40
2018-03-21T11:42:22.564Z,8.20
2018-03-21T11:44:50.017Z,8.20
2018-03-21T11:47:17.447Z,7.80
2018-03-21T11:49:45.656Z,9.00
2018-03-21T11:52:13.101Z,8.90
2018-03-21T11:54:41.307Z,8.70
2018-03-21T11:57:08.749Z,8.70
2018-03-21T11:59:36.199Z,9.00
2018-03-21T12:02:03.628Z,9.10
2018-03-21T12:04:31.863Z,10.10
2018-03-21T12:06:59.308Z,10.10
2018-03-21T12:09:26.743Z,8.80
2018-03-21T12:11:54.196Z,10.40
2018-03-21T12:14:21.620Z,9.30
2018-03-21T12:16:49.065Z,8.50
2018-03-21T12:19:16.512Z,8.60
2018-03-21T12:21:43.947Z,8.30
2018-03-21T12:24:12.151Z,8.10
2018-03-21T12:26:39.596Z,8.00
2018-03-21T12:29:07.031Z,8.00
2018-03-21T12:31:34.471Z,8.90
2018-03-21T12:34:01.912Z,8.50
2018-03-21T12:36:30.119Z,9.00
2018-03-21T12:38:57.552Z,8.90
2018-03-21T12:41:24.996Z,8.70
2018-03-21T12:43:53.206Z,8.40
2018-03-21T12:46:20.656Z,8.40
2018-03-21T12:48:48.101Z,8.50
2018-03-21T12:51:15.532Z,9.00
2018-03-21T12:53:43.748Z,8.60
2018-03-21T12:56:11.921Z,8.60
2018-03-21T12:58:40.089Z,9.40
2018-03-21T13:01:07.534Z,9.40
2018-03-21T13:03:34.991Z,8.80
2018-03-21T13:06:02.424Z,8.20
2018-03-21T13:08:29.881Z,9.20
2018-03-21T13:10:57.312Z,9.80
2018-03-21T13:13:24.769Z,11.80
2018-03-21T13:15:52.207Z,10.40
2018-03-21T13:18:19.653Z,9.00
2018-03-21T13:20:47.093Z,7.80
2018-03-21T13:23:14.548Z,7.70
2018-03-21T13:25:42.000Z,8.30
2018-03-21T13:28:10.223Z,8.20
2018-03-21T13:30:37.656Z,8.20
2018-03-21T13:33:05.092Z,7.40
2018-03-21T13:35:32.547Z,7.30
2018-03-21T13:37:59.988Z,7.50
2018-03-21T13:40:28.207Z,7.60
2018-03-21T13:42:55.652Z,7.50
2018-03-21T13:45:23.096Z,7.20
2018-03-21T13:47:50.546Z,7.90
2018-03-21T13:50:18.009Z,8.10
2018-03-21T13:52:46.194Z,8.20
2018-03-21T13:55:13.639Z,8.20
2018-03-21T13:57:41.074Z,7.20
2018-03-21T14:00:08.521Z,7.30
2018-03-21T14:02:35.947Z,7.40
2018-03-21T14:05:03.399Z,7.30
2018-03-21T14:07:30.838Z,7.50
2018-03-21T14:09:58.284Z,8.10
2018-03-21T14:12:25.728Z,7.80
2018-03-21T14:14:53.948Z,8.80
2018-03-21T14:17:21.384Z,8.70
2018-03-21T14:19:48.814Z,7.90
2018-03-21T14:22:17.093Z,7.70
2018-03-21T14:24:44.464Z,7.70
2018-03-21T14:27:11.913Z,7.50
2018-03-21T14:29:39.347Z,8.40
2018-03-21T14:32:06.792Z,7.60
2018-03-21T14:34:34.223Z,6.90
2018-03-21T14:37:01.689Z,6.80
2018-03-21T14:39:29.118Z,6.80
2018-03-21T14:41:56.563Z,6.70
2018-03-21T14:44:24.005Z,7.40
2018-03-21T14:46:52.214Z,8.00
2018-03-21T14:49:19.655Z,7.90
2018-03-21T14:51:47.100Z,7.90
2018-03-21T14:54:14.544Z,7.20
2018-03-21T14:56:42.750Z,8.10
2018-03-21T14:59:10.189Z,8.00
2018-03-21T15:01:37.644Z,8.40
2018-03-21T15:04:05.090Z,8.10
2018-03-21T15:06:33.297Z,7.70
2018-03-21T15:09:00.763Z,7.60
2018-03-21T15:11:28.196Z,8.10
2018-03-21T15:13:55.646Z,8.40
2018-03-21T15:16:23.085Z,9.30
2018-03-21T15:18:50.537Z,7.60
2018-03-21T15:21:17.980Z,7.40
2018-03-21T15:23:45.423Z,7.40
2018-03-21T15:26:12.851Z,7.90
2018-03-21T15:28:40.293Z,7.30
2018-03-21T15:31:07.732Z,7.00
2018-03-21T15:33:35.939Z,8.30
2018-03-21T15:36:03.380Z,8.30
2018-03-21T15:38:30.832Z,8.40
2018-03-21T15:40:59.035Z,6.90
2018-03-21T15:43:26.487Z,6.90
2018-03-21T15:45:53.971Z,6.30
2018-03-21T15:48:21.390Z,6.40
2018-03-21T15:50:48.836Z,6.60
2018-03-21T15:53:16.291Z,6.80
2018-03-21T15:55:44.490Z,6.30
2018-03-21T15:58:11.959Z,6.30
2018-03-21T16:00:39.396Z,6.90
2018-03-21T16:03:06.847Z,6.80
2018-03-21T16:05:34.292Z,6.70
2018-03-21T16:08:02.504Z,6.10
2018-03-21T16:10:29.952Z,6.00
2018-03-21T16:12:57.395Z,6.10
2018-03-21T16:15:24.833Z,6.20
2018-03-21T16:17:53.081Z,5.80
2018-03-21T16:20:20.565Z,5.90
2018-03-21T16:22:48.783Z,5.60
2018-03-21T16:25:16.242Z,5.60
2018-03-21T16:27:43.676Z,5.60
2018-03-21T16:30:11.138Z,5.50
2018-03-21T16:32:38.579Z,5.50
2018-03-21T16:35:06.032Z,6.00
2018-03-21T16:37:34.228Z,6.10
2018-03-21T16:40:01.681Z,6.10
2018-03-21T16:42:29.108Z,6.70
2018-03-21T16:44:56.556Z,6.90
2018-03-21T16:47:23.991Z,6.80
2018-03-21T16:49:51.450Z,6.80
2018-03-21T16:52:18.882Z,6.40
2018-03-21T16:54:46.316Z,5.90
2018-03-21T16:57:13.764Z,5.60
2018-03-21T16:59:41.200Z,5.30
2018-03-21T17:02:09.416Z,5.30
2018-03-21T17:04:36.856Z,5.20
2018-03-21T17:07:04.297Z,5.20
2018-03-21T17:09:31.742Z,5.10
2018-03-21T17:11:59.198Z,5.00
2018-03-21T17:14:26.648Z,4.90
2018-03-21T17:16:54.087Z,4.80
2018-03-21T17:19:21.515Z,5.10
2018-03-21T17:21:48.952Z,5.00
2018-03-21T17:24:16.399Z,4.80
2018-03-21T17:26:44.607Z,4.70
2018-03-21T17:29:12.043Z,4.70
2018-03-21T17:31:39.508Z,4.60
2018-03-21T17:34:06.960Z,4.50
2018-03-21T17:36:34.399Z,4.40
2018-03-21T17:39:02.620Z,4.30
2018-03-21T17:41:30.052Z,4.30
2018-03-21T17:44:03.217Z,4.30
2018-03-21T17:46:31.407Z,5.20
2018-03-21T17:48:58.901Z,5.20
2018-03-21T17:51:27.053Z,4.50
2018-03-21T17:53:54.499Z,4.50
2018-03-21T17:56:21.929Z,4.30
2018-03-21T17:58:50.388Z,4.30
2018-03-21T18:01:18.648Z,4.00
2018-03-21T18:03:46.106Z,4.00
2018-03-21T18:06:13.564Z,3.90
2018-03-21T18:08:41.029Z,3.80
2018-03-21T18:11:08.488Z,3.60
2018-03-21T18:13:35.945Z,3.40
2018-03-21T18:16:03.410Z,3.30
2018-03-21T18:18:30.892Z,3.50
2018-03-21T18:20:59.110Z,3.50
2018-03-21T18:23:26.563Z,3.40
2018-03-21T18:25:54.011Z,3.20
2018-03-21T18:28:21.476Z,3.00
2018-03-21T18:30:48.915Z,2.70
2018-03-21T18:33:16.394Z,2.70
2018-03-21T18:35:44.580Z,2.70
2018-03-21T18:38:12.016Z,2.60
2018-03-21T18:40:39.471Z,2.60
2018-03-21T18:43:06.915Z,2.60
2018-03-21T18:45:34.371Z,2.60
2018-03-21T18:48:01.844Z,2.70
2018-03-21T18:50:29.283Z,2.40
2018-03-21T18:52:56.737Z,2.40
2018-03-21T18:55:24.196Z,2.60
2018-03-21T18:57:51.653Z,2.70
2018-03-21T19:00:19.122Z,2.50
2018-03-21T19:02:46.572Z,2.60
2018-03-21T19:05:14.020Z,3.30
2018-03-21T19:07:41.475Z,4.30
2018-03-21T19:10:09.700Z,3.50
2018-03-21T19:12:37.144Z,3.50
2018-03-21T19:15:04.592Z,3.00
2018-03-21T19:17:32.053Z,2.20
2018-03-21T19:19:59.505Z,1.90
2018-03-21T19:22:26.968Z,2.60
2018-03-21T19:24:54.410Z,1.50
2018-03-21T19:27:21.859Z,1.90
2018-03-21T19:29:49.315Z,2.70
2018-03-21T19:32:17.527Z,3.20
2018-03-21T19:34:44.971Z,3.20
2018-03-21T19:37:12.431Z,4.10
2018-03-21T19:39:39.903Z,4.30
2018-03-21T19:42:07.343Z,3.00
2018-03-21T19:44:34.788Z,2.60
2018-03-21T19:47:02.266Z,2.10
2018-03-21T19:49:29.682Z,1.80
2018-03-21T19:51:57.148Z,2.50
2018-03-21T19:54:24.591Z,2.00
2018-03-21T19:56:52.804Z,1.30
2018-03-21T19:59:20.276Z,1.30
2018-03-21T20:01:47.728Z,1.00
2018-03-21T20:04:15.185Z,1.00
2018-03-21T20:06:42.624Z,0.60
2018-03-21T20:09:10.068Z,0.30
2018-03-21T20:11:37.507Z,0.70
2018-03-21T20:14:04.964Z,1.30
2018-03-21T20:16:33.173Z,2.50
2018-03-21T20:19:00.625Z,2.50
2018-03-21T20:21:28.063Z,2.20
2018-03-21T20:23:55.512Z,1.50
2018-03-21T20:26:22.947Z,1.10
2018-03-21T20:28:50.393Z,1.30
2018-03-21T20:31:17.836Z,1.60
2018-03-21T20:33:45.303Z,3.00
2018-03-21T20:36:12.735Z,2.40
2018-03-21T20:38:40.186Z,1.30
2018-03-21T20:41:07.653Z,2.20
2018-03-21T20:43:35.112Z,2.90
2018-03-21T20:46:02.553Z,3.50
2018-03-21T20:48:30.009Z,3.30
2018-03-21T20:50:57.464Z,3.30
2018-03-21T20:53:24.891Z,2.70
2018-03-21T20:55:53.113Z,3.30
2018-03-21T20:58:20.561Z,3.30
2018-03-21T21:00:48.767Z,3.50
2018-03-21T21:03:16.224Z,3.50
2018-03-21T21:05:43.668Z,3.20
2018-03-21T21:08:11.116Z,1.80
2018-03-21T21:10:38.572Z,0.40
2018-03-21T21:13:06.014Z,0.00
2018-03-21T21:15:33.460Z,0.80
2018-03-21T21:18:00.891Z,0.00
2018-03-21T21:20:28.345Z,1.00
2018-03-21T21:22:55.779Z,2.50
2018-03-21T21:25:23.227Z,2.30
2018-03-21T21:27:50.673Z,1.30
2018-03-21T21:30:18.103Z,0.60
2018-03-21T21:32:45.551Z,0.90
2018-03-21T21:35:12.997Z,2.20
2018-03-21T21:37:41.215Z,2.90
2018-03-21T21:40:08.648Z,2.90
2018-03-21T21:42:36.091Z,1.20
2018-03-21T21:45:04.351Z,1.10
2018-03-21T21:47:31.760Z,1.10
2018-03-21T21:49:59.216Z,2.00
2018-03-21T21:52:26.677Z,1.30
2018-03-21T21:54:54.876Z,0.30
2018-03-21T21:57:22.353Z,0.20
2018-03-21T21:59:49.797Z,1.80
2018-03-21T22:02:17.236Z,2.50
2018-03-21T22:04:44.693Z,3.50
2018-03-21T22:07:12.148Z,3.20
2018-03-21T22:09:39.588Z,2.60
2018-03-21T22:12:12.744Z,1.30
2018-03-21T22:14:40.176Z,0.30
2018-03-21T22:17:07.616Z,0.40
2018-03-21T22:19:35.065Z,0.80
2018-03-21T22:22:02.508Z,1.50
2018-03-21T22:24:29.965Z,1.40
2018-03-21T22:26:57.391Z,1.90
2018-03-21T22:29:24.849Z,2.40
2018-03-21T22:31:52.271Z,2.60
2018-03-21T22:34:19.736Z,1.80
2018-03-21T22:36:47.179Z,2.70
2018-03-21T22:39:14.631Z,2.50
2018-03-21T22:41:42.077Z,3.10
2018-03-21T22:44:09.527Z,2.40
2018-03-21T22:46:36.971Z,1.60
2018-03-21T22:49:04.427Z,1.50
2018-03-21T22:51:31.859Z,1.70
2018-03-21T22:54:00.083Z,2.20
2018-03-21T22:56:27.519Z,2.20
2018-03-21T22:58:54.975Z,1.40
2018-03-21T23:01:22.416Z,0.10
2018-03-21T23:03:49.859Z,-0.20
2018-03-21T23:06:18.083Z,-1.50
2018-03-21T23:08:45.539Z,-1.50
2018-03-21T23:11:12.976Z,-1.60
2018-03-21T23:13:40.404Z,-1.70
2018-03-21T23:16:08.624Z,-1.80
2018-03-21T23:18:36.089Z,-1.80
2018-03-21T23:21:03.539Z,-1.80
2018-03-21T23:23:30.975Z,-1.90
2018-03-21T23:25:58.411Z,-1.80
2018-03-21T23:28:26.623Z,-1.40
2018-03-21T23:30:54.082Z,-1.40
2018-03-21T23:33:21.525Z,-1.40
2018-03-21T23:35:48.975Z,-1.60
2018-03-21T23:38:16.417Z,-1.60
2018-03-21T23:40:44.637Z,-1.50
2018-03-21T23:43:12.078Z,-1.50
2018-03-21T23:45:39.531Z,-1.70
2018-03-21T23:48:06.960Z,-1.40
2018-03-21T23:50:35.184Z,-1.80
2018-03-21T23:53:02.629Z,-1.80
2018-03-21T23:55:30.081Z,-1.20
2018-03-21T23:57:57.542Z,-1.30
